createdAt,value
2019-03-16T05:03:57.333Z,99979.109
2019-03-16T05:07:25.211Z,99994.484
2019-03-16T05:10:53.072Z,99995.921
2019-03-16T05:14:21.948Z,100016.42
2019-03-16T05:17:49.820Z,100009.78
2019-03-16T05:21:17.677Z,100013.23
2019-03-16T05:24:45.555Z,100021.37
2019-03-16T05:28:13.434Z,100030.74
2019-03-16T05:31:41.302Z,100031.45
2019-03-16T05:40:09.017Z,100040.57
2019-03-16T05:43:36.904Z,100041.84
2019-03-16T05:47:04.768Z,100047.92
2019-03-16T05:50:32.643Z,100052.05
2019-03-16T05:54:00.536Z,100049.39
2019-03-16T05:57:28.400Z,100054.18
2019-03-16T06:00:56.341Z,100056.54
2019-03-16T06:04:24.217Z,100059.09
2019-03-16T06:07:52.539Z,100063.48
2019-03-16T06:11:21.386Z,100070.81
2019-03-16T06:14:49.297Z,100076.25
2019-03-16T06:18:17.176Z,100081.57
2019-03-16T06:21:46.065Z,100089.85
2019-03-16T06:25:13.944Z,100097.25
2019-03-16T06:28:42.927Z,100112.67
2019-03-16T06:32:10.787Z,100111.76
2019-03-16T06:35:38.986Z,100127.84
2019-03-16T06:39:07.317Z,100127.25
2019-03-16T06:47:03.676Z,100131.96
2019-03-16T06:50:32.115Z,100140.05
2019-03-16T06:54:00.516Z,100141.51
2019-03-16T06:57:28.923Z,100141.5
2019-03-16T07:00:57.267Z,100147.56
2019-03-16T07:04:25.772Z,100144.68
2019-03-16T07:07:54.242Z,100150.05
2019-03-16T07:11:22.639Z,100139.35
2019-03-16T07:15:11.414Z,100143.07
2019-03-16T07:18:39.604Z,100153.22
2019-03-16T07:22:07.880Z,100149.6
2019-03-16T07:25:36.195Z,100164.59
2019-03-16T07:29:05.439Z,100170.18
2019-03-16T07:32:33.803Z,100167.89
2019-03-16T07:36:02.181Z,100181.1
2019-03-16T07:39:31.695Z,100182.46
2019-03-16T07:43:01.484Z,100177.94
2019-03-16T07:46:29.598Z,100179.2
2019-03-16T07:49:59.521Z,100194.82
2019-03-16T07:53:28.798Z,100191.15
2019-03-16T07:56:58.240Z,100195.17
2019-03-16T08:00:26.679Z,100201.13
2019-03-16T08:03:55.112Z,100199.45
2019-03-16T08:07:23.570Z,100211.25
2019-03-16T08:10:51.943Z,100206.73
2019-03-16T08:14:20.301Z,100199.46
2019-03-16T08:17:49.683Z,100211.79
2019-03-16T08:21:18.041Z,100208.51
2019-03-16T08:24:47.206Z,100200.34
2019-03-16T08:28:15.547Z,100203.7
2019-03-16T08:31:43.905Z,100205.7
2019-03-16T08:35:13.310Z,100213.89
2019-03-16T08:38:41.639Z,100204.67
2019-03-16T08:47:50.101Z,100223.39
2019-03-16T08:51:57.226Z,100239.9
2019-03-16T08:55:25.445Z,100230.49
2019-03-16T08:58:53.655Z,100225.71
2019-03-16T09:02:21.719Z,100246.2
2019-03-16T09:06:09.425Z,100232.36
2019-03-16T09:09:37.480Z,100233.56
2019-03-16T09:13:09.568Z,100231.98
2019-03-16T09:21:05.113Z,100214.17
2019-03-16T09:24:32.970Z,100217.07
2019-03-16T09:28:01.409Z,100227.28
2019-03-16T09:31:30.256Z,100249.96
2019-03-16T09:34:58.149Z,100243.95
2019-03-16T09:38:26.159Z,100273.18
2019-03-16T09:41:54.775Z,100271.57
2019-03-16T09:45:23.340Z,100254.89
2019-03-16T09:48:51.194Z,100267.64
2019-03-16T09:52:19.072Z,100283.56
2019-03-16T09:55:46.952Z,100298.5
2019-03-16T09:59:14.876Z,100296.03
2019-03-16T10:02:42.737Z,100289.49
2019-03-16T10:06:10.787Z,100285.46
2019-03-16T10:09:38.628Z,100286.66
2019-03-16T10:13:07.374Z,100295.31
2019-03-16T10:16:35.250Z,100287.21
2019-03-16T10:20:03.863Z,100304.07
2019-03-16T10:23:31.786Z,100295.96
2019-03-16T10:26:59.708Z,100295.39
2019-03-16T10:30:27.598Z,100292.78
2019-03-16T10:33:55.504Z,100282.26
2019-03-16T10:37:23.405Z,100292.06
2019-03-16T10:40:51.275Z,100294.68
2019-03-16T10:44:20.792Z,100283.07
2019-03-16T10:47:49.676Z,100306.35
2019-03-16T10:51:17.520Z,100288.89
2019-03-16T10:54:45.394Z,100300.4
2019-03-16T10:58:13.274Z,100290.48
2019-03-16T11:01:41.124Z,100291.68
2019-03-16T11:05:08.978Z,100291.52
2019-03-16T11:08:36.916Z,100291.53
2019-03-16T11:12:05.340Z,100288.08
2019-03-16T11:15:33.173Z,100292.92
2019-03-16T11:19:01.043Z,100290.01
2019-03-16T11:22:28.932Z,100286.44
2019-03-16T11:25:56.771Z,100297
2019-03-16T11:29:25.633Z,100288.95
2019-03-16T11:32:54.497Z,100286.15
2019-03-16T11:36:23.798Z,100283.84
2019-03-16T11:39:58.778Z,100290.39
2019-03-16T11:43:26.622Z,100282.21
2019-03-16T11:46:54.530Z,100277.06
2019-03-16T11:50:22.379Z,100276.1
2019-03-16T11:53:50.230Z,100282.11
2019-03-16T11:57:19.126Z,100267.96
2019-03-16T12:00:46.991Z,100258.17
2019-03-16T12:04:15.845Z,100260.69
2019-03-16T12:07:43.705Z,100265.2
2019-03-16T12:11:11.547Z,100271.08
2019-03-16T12:14:39.482Z,100277.28
2019-03-16T12:18:07.369Z,100270.74
2019-03-16T12:21:36.226Z,100266.83
2019-03-16T12:25:04.079Z,100261.21
2019-03-16T12:28:31.986Z,100269.96
2019-03-16T12:31:59.829Z,100268.35
2019-03-16T12:35:27.687Z,100264.87
2019-03-16T12:38:55.549Z,100258.79
2019-03-16T12:42:24.056Z,100271.4
2019-03-16T12:45:51.923Z,100257.71
2019-03-16T12:49:19.768Z,100250.2
2019-03-16T12:52:47.616Z,100258.83
2019-03-16T12:56:15.456Z,100236.34
2019-03-16T12:59:47.032Z,100238.42
2019-03-16T13:03:15.904Z,100238.95
2019-03-16T13:06:44.116Z,100232.05
2019-03-16T13:10:11.957Z,100232.08
2019-03-16T13:13:39.799Z,100232.56
2019-03-16T13:17:07.657Z,100229.12
2019-03-16T13:20:35.496Z,100219.47
2019-03-16T13:24:04.346Z,100214.26
2019-03-16T13:27:32.211Z,100223.89
2019-03-16T13:31:00.138Z,100217.82
2019-03-16T13:34:29.842Z,100215.81
2019-03-16T13:37:57.776Z,100213.98
2019-03-16T13:41:25.575Z,100207.39
2019-03-16T13:44:53.521Z,100205.67
2019-03-16T13:48:21.381Z,100199.79
2019-03-16T13:51:49.278Z,100198.96
2019-03-16T13:55:17.120Z,100199.31
2019-03-16T13:58:44.993Z,100193.62
2019-03-16T14:02:12.907Z,100190.98
2019-03-16T14:05:41.010Z,100187.78
2019-03-16T14:09:10.793Z,100192.57
2019-03-16T14:12:38.672Z,100198.32
2019-03-16T14:16:06.559Z,100191.01
2019-03-16T14:19:36.126Z,100191.17
2019-03-16T14:23:03.972Z,100188.81
2019-03-16T14:26:31.808Z,100202.21
2019-03-16T14:29:59.754Z,100201.33
2019-03-16T14:33:27.605Z,100193.32
2019-03-16T14:36:58.534Z,100200.4
2019-03-16T14:40:27.332Z,100213.04
2019-03-16T14:43:56.336Z,100221.39
2019-03-16T14:47:24.412Z,100216.8
2019-03-16T14:50:52.288Z,100228.14
2019-03-16T14:54:20.161Z,100218.47
2019-03-16T14:57:48.214Z,100224.05
2019-03-16T15:01:16.549Z,100218.95
2019-03-16T15:04:45.153Z,100219.28
2019-03-16T15:08:13.004Z,100214.14
2019-03-16T15:11:41.637Z,100201.75
2019-03-16T15:15:09.515Z,100198.27
2019-03-16T15:18:37.365Z,100199.31
2019-03-16T15:22:06.871Z,100193.32
2019-03-16T15:25:37.835Z,100187.81
2019-03-16T15:29:05.694Z,100180.17
2019-03-16T15:32:33.526Z,100181.34
2019-03-16T15:36:01.385Z,100172.21
2019-03-16T15:39:29.271Z,100160.96
2019-03-16T15:42:57.153Z,100161.39
2019-03-16T15:46:24.999Z,100153.45
2019-03-16T15:49:52.848Z,100149.17
2019-03-16T15:53:21.686Z,100148.58
2019-03-16T15:56:49.532Z,100142.2
2019-03-16T16:00:18.409Z,100135.57
2019-03-16T16:03:46.280Z,100130
2019-03-16T16:07:14.139Z,100121
2019-03-16T16:10:42.966Z,100119.57
2019-03-16T16:14:11.807Z,100117.09
2019-03-16T16:17:39.672Z,100121.98
2019-03-16T16:21:08.508Z,100117.71
2019-03-16T16:24:36.396Z,100103.82
2019-03-16T16:28:04.259Z,100104.75
2019-03-16T16:31:32.100Z,100096.74
2019-03-16T16:34:59.941Z,100093.15
2019-03-16T16:38:27.795Z,100089
2019-03-16T16:41:55.660Z,100082.39
2019-03-16T16:45:23.497Z,100070.07
2019-03-16T16:48:51.352Z,100069.16
2019-03-16T16:52:21.214Z,100059.75
2019-03-16T16:55:49.069Z,100061.39
2019-03-16T16:59:16.928Z,100056.57
2019-03-16T17:02:44.779Z,100044.19
2019-03-16T17:06:13.620Z,100042.5
2019-03-16T17:09:41.465Z,100035.32
2019-03-16T17:13:09.325Z,100030.04
2019-03-16T17:16:38.275Z,100017.4
2019-03-16T17:20:06.171Z,100015.43
2019-03-16T17:23:34.021Z,100008.46
2019-03-16T17:27:02.636Z,99999.406
2019-03-16T17:30:30.471Z,99991.812
2019-03-16T17:33:58.331Z,99986.968
2019-03-16T17:37:26.179Z,99978.968
2019-03-16T17:40:54.033Z,99973.109
2019-03-16T17:44:23.863Z,99978.406
2019-03-16T17:47:51.722Z,99976.812
2019-03-16T17:51:19.623Z,99960.109
2019-03-16T17:54:48.674Z,99958.953
2019-03-16T17:58:16.520Z,99958.875
2019-03-16T18:01:54.414Z,99953.578
2019-03-16T18:05:18.230Z,99946.945
2019-03-16T18:08:46.122Z,99942.375
2019-03-16T18:12:13.922Z,99924.062
2019-03-16T18:15:41.778Z,99927.921
2019-03-16T18:19:09.627Z,99923.82
2019-03-16T18:22:37.464Z,99915.414
2019-03-16T18:26:05.379Z,99912.546
2019-03-16T18:29:33.255Z,99887.007
2019-03-16T18:33:01.174Z,99914.781
2019-03-16T18:36:29.013Z,99896.726
2019-03-16T18:39:56.873Z,99889.546
2019-03-16T18:43:24.746Z,99887.14
2019-03-16T18:46:52.676Z,99884.14
2019-03-16T18:50:20.544Z,99872.109
2019-03-16T18:53:48.474Z,99867.468
2019-03-16T18:57:23.172Z,99868.421
2019-03-16T19:00:51.104Z,99864.25
2019-03-16T19:04:18.956Z,99866.492
2019-03-16T19:07:46.796Z,99858.171
2019-03-16T19:11:14.663Z,99856.406
2019-03-16T19:14:42.547Z,99847.718
2019-03-16T19:18:10.413Z,99843.218
2019-03-16T19:21:39.255Z,99840.39
2019-03-16T19:25:07.143Z,99837.023
2019-03-16T19:28:34.965Z,99831.25
2019-03-16T19:32:02.816Z,99821.39
2019-03-16T19:35:30.662Z,99820.406
2019-03-16T19:38:58.537Z,99818.015
2019-03-16T19:42:26.458Z,99826.828
2019-03-16T19:46:50.490Z,99816.171
2019-03-16T19:50:18.350Z,99805.187
2019-03-16T19:53:46.173Z,99792.609
2019-03-16T19:57:16.442Z,99784.671
2019-03-16T20:00:43.914Z,99786.984
2019-03-16T20:04:12.174Z,99785.625
2019-03-16T20:07:41.795Z,99780.953
2019-03-16T20:11:09.646Z,99772.328
2019-03-16T20:14:40.007Z,99762.664
2019-03-16T20:18:07.839Z,99766.375
2019-03-16T20:21:35.704Z,99769.359
2019-03-16T20:31:09.138Z,99753.07
2019-03-16T20:34:37.315Z,99760.21
2019-03-16T20:38:05.171Z,99759.578
2019-03-16T20:41:36.260Z,99755.695
2019-03-16T20:45:03.951Z,99751.406
2019-03-16T20:48:31.751Z,99751.593
2019-03-16T20:51:59.653Z,99753.335
2019-03-16T20:55:28.214Z,99754.039
2019-03-16T20:58:58.350Z,99750.023
2019-03-16T21:02:26.371Z,99748.429
2019-03-16T21:05:54.250Z,99741.703
2019-03-16T21:09:22.741Z,99744.898
2019-03-16T21:12:51.538Z,99735.093
2019-03-16T21:16:19.451Z,99737.984
2019-03-16T21:19:47.335Z,99734.351
2019-03-16T21:23:15.219Z,99738.343
2019-03-16T21:26:52.170Z,99730.421
2019-03-16T21:30:16.991Z,99729.859
2019-03-16T21:33:45.976Z,99727.359
2019-03-16T21:37:32.196Z,99723.015
2019-03-16T21:41:00.041Z,99718.742
2019-03-16T21:44:27.872Z,99715.203
2019-03-16T21:53:36.878Z,99708.781
2019-03-16T21:57:04.742Z,99714.515
2019-03-16T22:00:32.564Z,99708.562
2019-03-16T22:04:00.399Z,99712.359
2019-03-16T22:07:29.242Z,99711.359
2019-03-16T22:10:57.096Z,99694.203
2019-03-16T22:14:24.941Z,99686.343
2019-03-16T22:17:52.790Z,99686.398
2019-03-16T22:21:20.640Z,99678.187
2019-03-16T22:24:49.515Z,99669.234
2019-03-16T22:28:18.346Z,99666.812
2019-03-16T22:31:46.195Z,99667.343
2019-03-16T22:35:14.045Z,99667.242
2019-03-16T22:38:41.879Z,99668.062
2019-03-16T22:42:09.729Z,99667.765
2019-03-16T22:45:37.624Z,99660.578
2019-03-16T22:49:05.478Z,99655.46
2019-03-16T22:52:33.962Z,99655.281
2019-03-16T22:56:01.835Z,99645.945
